sensor_id;sensor_type;location;lat;lon;timestamp;temperature;humidity
17918;DHT22;9084;50.956;3.106;2023-05-29T00:01:51;13.50;99.90
17918;DHT22;9084;50.956;3.106;2023-05-29T00:04:17;13.40;99.90
17918;DHT22;9084;50.956;3.106;2023-05-29T00:06:45;13.40;99.90
17918;DHT22;9084;50.956;3.106;2023-05-29T00:09:11;13.40;99.90
17918;DHT22;9084;50.956;3.106;2023-05-29T00:11:37;13.40;99.90
17918;DHT22;9084;50.956;3.106;2023-05-29T00:14:02;13.40;99.90
17918;DHT22;9084;50.956;3.106;2023-05-29T00:16:28;13.40;99.90
17918;DHT22;9084;50.956;3.106;2023-05-29T00:18:55;13.40;99.90
17918;DHT22;9084;50.956;3.106;2023-05-29T00:21:20;13.40;99.90
17918;DHT22;9084;50.956;3.106;2023-05-29T00:23:48;13.30;99.90
17918;DHT22;9084;50.956;3.106;2023-05-29T00:26:14;13.40;99.90
17918;DHT22;9084;50.956;3.106;2023-05-29T00:28:42;13.30;99.90
17918;DHT22;9084;50.956;3.106;2023-05-29T00:31:07;13.30;99.90
17918;DHT22;9084;50.956;3.106;2023-05-29T00:33:33;13.30;99.90
17918;DHT22;9084;50.956;3.106;2023-05-29T00:35:59;13.20;99.90
17918;DHT22;9084;50.956;3.106;2023-05-29T00:38:24;13.20;99.90
17918;DHT22;9084;50.956;3.106;2023-05-29T00:40:50;13.20;99.90
17918;DHT22;9084;50.956;3.106;2023-05-29T00:43:20;13.20;99.90
17918;DHT22;9084;50.956;3.106;2023-05-29T00:45:46;13.10;99.90
17918;DHT22;9084;50.956;3.106;2023-05-29T00:48:12;13.10;99.90
17918;DHT22;9084;50.956;3.106;2023-05-29T00:50:38;13.10;99.90
17918;DHT22;9084;50.956;3.106;2023-05-29T00:53:04;13.10;99.90
17918;DHT22;9084;50.956;3.106;2023-05-29T00:55:30;13.10;99.90
17918;DHT22;9084;50.956;3.106;2023-05-29T00:57:56;13.00;99.90
17918;DHT22;9084;50.956;3.106;2023-05-29T01:00:22;13.00;99.90
17918;DHT22;9084;50.956;3.106;2023-05-29T01:02:51;13.00;99.90
17918;DHT22;9084;50.956;3.106;2023-05-29T01:05:18;13.00;99.90
17918;DHT22;9084;50.956;3.106;2023-05-29T01:07:44;12.90;99.90
17918;DHT22;9084;50.956;3.106;2023-05-29T01:10:11;12.90;99.90
17918;DHT22;9084;50.956;3.106;2023-05-29T01:13:09;12.90;99.90
17918;DHT22;9084;50.956;3.106;2023-05-29T01:15:57;12.80;99.90
17918;DHT22;9084;50.956;3.106;2023-05-29T01:29:00;12.70;99.90
17918;DHT22;9084;50.956;3.106;2023-05-29T01:31:28;12.60;99.90
17918;DHT22;9084;50.956;3.106;2023-05-29T01:33:55;12.60;99.90
17918;DHT22;9084;50.956;3.106;2023-05-29T01:36:22;12.60;99.90
17918;DHT22;9084;50.956;3.106;2023-05-29T01:38:49;12.60;99.90
17918;DHT22;9084;50.956;3.106;2023-05-29T01:41:16;12.50;99.90
17918;DHT22;9084;50.956;3.106;2023-05-29T01:43:46;12.50;99.90
17918;DHT22;9084;50.956;3.106;2023-05-29T01:46:13;12.50;99.90
17918;DHT22;9084;50.956;3.106;2023-05-29T01:48:44;12.50;99.90
17918;DHT22;9084;50.956;3.106;2023-05-29T01:51:12;12.50;99.90
17918;DHT22;9084;50.956;3.106;2023-05-29T01:53:41;12.50;99.90
17918;DHT22;9084;50.956;3.106;2023-05-29T01:56:08;12.50;99.90
17918;DHT22;9084;50.956;3.106;2023-05-29T01:58:35;12.40;99.90
17918;DHT22;9084;50.956;3.106;2023-05-29T02:01:06;12.40;99.90
17918;DHT22;9084;50.956;3.106;2023-05-29T02:03:32;12.40;99.90
17918;DHT22;9084;50.956;3.106;2023-05-29T02:05:59;12.30;99.90
17918;DHT22;9084;50.956;3.106;2023-05-29T02:08:27;12.30;99.90
17918;DHT22;9084;50.956;3.106;2023-05-29T02:10:55;12.30;99.90
17918;DHT22;9084;50.956;3.106;2023-05-29T02:13:23;12.30;99.90
17918;DHT22;9084;50.956;3.106;2023-05-29T02:15:49;12.20;99.90
17918;DHT22;9084;50.956;3.106;2023-05-29T02:18:15;12.20;99.90
17918;DHT22;9084;50.956;3.106;2023-05-29T02:20:44;12.20;99.90
17918;DHT22;9084;50.956;3.106;2023-05-29T02:23:11;12.20;99.90
17918;DHT22;9084;50.956;3.106;2023-05-29T02:25:37;12.10;99.90
17918;DHT22;9084;50.956;3.106;2023-05-29T02:28:05;12.10;99.90
17918;DHT22;9084;50.956;3.106;2023-05-29T02:30:31;12.10;99.90
17918;DHT22;9084;50.956;3.106;2023-05-29T02:32:59;12.10;99.90
17918;DHT22;9084;50.956;3.106;2023-05-29T02:35:24;12.10;99.90
17918;DHT22;9084;50.956;3.106;2023-05-29T02:37:51;12.00;99.90
17918;DHT22;9084;50.956;3.106;2023-05-29T02:40:19;12.00;99.90
17918;DHT22;9084;50.956;3.106;2023-05-29T02:42:46;12.00;99.90
17918;DHT22;9084;50.956;3.106;2023-05-29T02:45:14;12.00;99.90
17918;DHT22;9084;50.956;3.106;2023-05-29T02:47:39;12.00;99.90
17918;DHT22;9084;50.956;3.106;2023-05-29T02:50:09;11.90;99.90
17918;DHT22;9084;50.956;3.106;2023-05-29T02:52:36;11.90;99.90
17918;DHT22;9084;50.956;3.106;2023-05-29T02:55:05;11.90;99.90
17918;DHT22;9084;50.956;3.106;2023-05-29T02:57:33;11.90;99.90
17918;DHT22;9084;50.956;3.106;2023-05-29T02:59:59;11.90;99.90
17918;DHT22;9084;50.956;3.106;2023-05-29T03:02:27;11.80;99.90
17918;DHT22;9084;50.956;3.106;2023-05-29T03:04:53;11.80;99.90
17918;DHT22;9084;50.956;3.106;2023-05-29T03:07:19;11.80;99.90
17918;DHT22;9084;50.956;3.106;2023-05-29T03:09:45;11.80;99.90
17918;DHT22;9084;50.956;3.106;2023-05-29T03:12:15;11.80;99.90
17918;DHT22;9084;50.956;3.106;2023-05-29T03:14:42;11.80;99.90
17918;DHT22;9084;50.956;3.106;2023-05-29T03:17:07;11.80;99.90
17918;DHT22;9084;50.956;3.106;2023-05-29T03:19:33;11.70;99.90
17918;DHT22;9084;50.956;3.106;2023-05-29T03:21:59;11.80;99.90
17918;DHT22;9084;50.956;3.106;2023-05-29T03:24:25;11.70;99.90
17918;DHT22;9084;50.956;3.106;2023-05-29T03:26:53;11.70;99.90
17918;DHT22;9084;50.956;3.106;2023-05-29T03:29:19;11.70;99.90
17918;DHT22;9084;50.956;3.106;2023-05-29T03:31:49;11.70;99.90
17918;DHT22;9084;50.956;3.106;2023-05-29T03:34:15;11.60;99.90
17918;DHT22;9084;50.956;3.106;2023-05-29T03:36:43;11.60;99.90
17918;DHT22;9084;50.956;3.106;2023-05-29T03:39:11;11.60;99.90
17918;DHT22;9084;50.956;3.106;2023-05-29T03:41:37;11.60;99.90
17918;DHT22;9084;50.956;3.106;2023-05-29T03:44:04;11.60;99.90
17918;DHT22;9084;50.956;3.106;2023-05-29T03:46:31;11.60;99.90
17918;DHT22;9084;50.956;3.106;2023-05-29T03:48:56;11.50;99.90
17918;DHT22;9084;50.956;3.106;2023-05-29T03:51:24;11.50;99.90
17918;DHT22;9084;50.956;3.106;2023-05-29T03:53:50;11.50;99.90
17918;DHT22;9084;50.956;3.106;2023-05-29T03:56:15;11.50;99.90
17918;DHT22;9084;50.956;3.106;2023-05-29T03:58:41;11.50;99.90
17918;DHT22;9084;50.956;3.106;2023-05-29T04:01:07;11.50;99.90
17918;DHT22;9084;50.956;3.106;2023-05-29T04:03:33;11.60;99.90
17918;DHT22;9084;50.956;3.106;2023-05-29T04:05:59;11.50;99.90
17918;DHT22;9084;50.956;3.106;2023-05-29T04:08:25;11.50;99.90
17918;DHT22;9084;50.956;3.106;2023-05-29T04:10:51;11.50;99.90
17918;DHT22;9084;50.956;3.106;2023-05-29T04:13:19;11.50;99.90
17918;DHT22;9084;50.956;3.106;2023-05-29T04:15:45;11.60;99.90
17918;DHT22;9084;50.956;3.106;2023-05-29T04:18:13;11.60;99.90
17918;DHT22;9084;50.956;3.106;2023-05-29T04:20:39;11.60;99.90
17918;DHT22;9084;50.956;3.106;2023-05-29T04:23:05;11.60;99.90
17918;DHT22;9084;50.956;3.106;2023-05-29T04:25:30;11.60;99.90
17918;DHT22;9084;50.956;3.106;2023-05-29T04:27:57;11.60;99.90
17918;DHT22;9084;50.956;3.106;2023-05-29T04:30:23;11.60;99.90
17918;DHT22;9084;50.956;3.106;2023-05-29T04:32:53;11.70;99.90
17918;DHT22;9084;50.956;3.106;2023-05-29T04:35:19;11.70;99.90
17918;DHT22;9084;50.956;3.106;2023-05-29T04:37:47;11.70;99.90
17918;DHT22;9084;50.956;3.106;2023-05-29T04:40:13;11.70;99.90
17918;DHT22;9084;50.956;3.106;2023-05-29T04:42:43;11.80;99.90
17918;DHT22;9084;50.956;3.106;2023-05-29T04:45:11;11.80;99.90
17918;DHT22;9084;50.956;3.106;2023-05-29T04:47:37;11.80;99.90
17918;DHT22;9084;50.956;3.106;2023-05-29T04:50:18;11.80;99.90
17918;DHT22;9084;50.956;3.106;2023-05-29T04:52:44;11.80;99.90
17918;DHT22;9084;50.956;3.106;2023-05-29T04:55:12;11.90;99.90
17918;DHT22;9084;50.956;3.106;2023-05-29T04:57:37;11.90;99.90
17918;DHT22;9084;50.956;3.106;2023-05-29T05:00:04;12.00;99.90
17918;DHT22;9084;50.956;3.106;2023-05-29T05:02:32;12.00;99.90
17918;DHT22;9084;50.956;3.106;2023-05-29T05:04:58;12.00;99.90
17918;DHT22;9084;50.956;3.106;2023-05-29T05:07:26;12.00;99.90
17918;DHT22;9084;50.956;3.106;2023-05-29T05:09:52;12.00;99.90
17918;DHT22;9084;50.956;3.106;2023-05-29T05:12:18;12.00;99.90
17918;DHT22;9084;50.956;3.106;2023-05-29T05:14:43;12.10;99.90
17918;DHT22;9084;50.956;3.106;2023-05-29T05:17:11;12.10;99.90
17918;DHT22;9084;50.956;3.106;2023-05-29T05:19:39;12.10;99.90
17918;DHT22;9084;50.956;3.106;2023-05-29T05:22:07;12.10;99.90
17918;DHT22;9084;50.956;3.106;2023-05-29T05:24:33;12.20;99.90
17918;DHT22;9084;50.956;3.106;2023-05-29T05:27:00;12.20;99.90
17918;DHT22;9084;50.956;3.106;2023-05-29T05:29:25;12.30;99.90
17918;DHT22;9084;50.956;3.106;2023-05-29T05:31:51;12.20;99.90
17918;DHT22;9084;50.956;3.106;2023-05-29T05:34:19;12.20;99.90
17918;DHT22;9084;50.956;3.106;2023-05-29T05:36:47;12.30;99.90
17918;DHT22;9084;50.956;3.106;2023-05-29T05:39:15;12.40;99.90
17918;DHT22;9084;50.956;3.106;2023-05-29T05:41:43;12.40;99.90
17918;DHT22;9084;50.956;3.106;2023-05-29T05:44:08;12.50;99.90
17918;DHT22;9084;50.956;3.106;2023-05-29T05:46:36;12.60;99.90
17918;DHT22;9084;50.956;3.106;2023-05-29T05:49:07;12.60;94.60
17918;DHT22;9084;50.956;3.106;2023-05-29T05:51:33;12.70;75.30
17918;DHT22;9084;50.956;3.106;2023-05-29T05:53:58;12.60;47.50
17918;DHT22;9084;50.956;3.106;2023-05-29T05:56:26;12.60;46.60
17918;DHT22;9084;50.956;3.106;2023-05-29T05:58:52;12.70;59.90
17918;DHT22;9084;50.956;3.106;2023-05-29T06:01:20;12.80;36.30
17918;DHT22;9084;50.956;3.106;2023-05-29T06:03:49;12.80;28.50
17918;DHT22;9084;50.956;3.106;2023-05-29T06:06:15;12.80;18.00
17918;DHT22;9084;50.956;3.106;2023-05-29T06:08:45;12.90;29.00
17918;DHT22;9084;50.956;3.106;2023-05-29T06:11:15;13.00;14.70
17918;DHT22;9084;50.956;3.106;2023-05-29T06:13:43;13.00;9.90
17918;DHT22;9084;50.956;3.106;2023-05-29T06:16:11;13.00;16.40
17918;DHT22;9084;50.956;3.106;2023-05-29T06:18:39;13.10;2.60
17918;DHT22;9084;50.956;3.106;2023-05-29T06:21:05;13.10;1.20
17918;DHT22;9084;50.956;3.106;2023-05-29T06:23:35;13.20;1.00
17918;DHT22;9084;50.956;3.106;2023-05-29T06:26:06;13.30;1.00
17918;DHT22;9084;50.956;3.106;2023-05-29T06:28:34;13.30;1.00
17918;DHT22;9084;50.956;3.106;2023-05-29T06:31:00;13.40;1.00
17918;DHT22;9084;50.956;3.106;2023-05-29T06:33:27;13.40;1.00
17918;DHT22;9084;50.956;3.106;2023-05-29T06:35:55;13.30;1.00
17918;DHT22;9084;50.956;3.106;2023-05-29T06:38:21;13.40;1.00
17918;DHT22;9084;50.956;3.106;2023-05-29T06:40:49;13.40;1.00
17918;DHT22;9084;50.956;3.106;2023-05-29T06:43:14;13.50;1.00
17918;DHT22;9084;50.956;3.106;2023-05-29T06:45:40;13.50;1.00
17918;DHT22;9084;50.956;3.106;2023-05-29T06:48:09;13.60;1.00
17918;DHT22;9084;50.956;3.106;2023-05-29T06:50:36;13.70;1.00
17918;DHT22;9084;50.956;3.106;2023-05-29T06:53:04;13.80;1.00
17918;DHT22;9084;50.956;3.106;2023-05-29T06:55:32;13.80;1.00
17918;DHT22;9084;50.956;3.106;2023-05-29T06:57:58;13.80;1.00
17918;DHT22;9084;50.956;3.106;2023-05-29T07:00:24;13.90;1.00
17918;DHT22;9084;50.956;3.106;2023-05-29T07:02:50;14.00;1.00
17918;DHT22;9084;50.956;3.106;2023-05-29T07:05:16;14.00;1.00
17918;DHT22;9084;50.956;3.106;2023-05-29T07:07:42;14.10;1.00
17918;DHT22;9084;50.956;3.106;2023-05-29T07:10:08;14.10;1.00
17918;DHT22;9084;50.956;3.106;2023-05-29T07:12:33;14.20;1.00
17918;DHT22;9084;50.956;3.106;2023-05-29T07:14:59;14.30;1.00
17918;DHT22;9084;50.956;3.106;2023-05-29T07:17:25;14.30;1.00
17918;DHT22;9084;50.956;3.106;2023-05-29T07:19:50;14.30;1.00
17918;DHT22;9084;50.956;3.106;2023-05-29T07:22:16;14.40;1.00
17918;DHT22;9084;50.956;3.106;2023-05-29T07:24:42;14.40;32.70
17918;DHT22;9084;50.956;3.106;2023-05-29T07:27:07;14.30;1.00
17918;DHT22;9084;50.956;3.106;2023-05-29T07:29:35;14.40;1.00
17918;DHT22;9084;50.956;3.106;2023-05-29T07:32:01;14.60;1.00
17918;DHT22;9084;50.956;3.106;2023-05-29T07:34:27;14.70;58.00
17918;DHT22;9084;50.956;3.106;2023-05-29T07:37:03;14.80;99.90
17918;DHT22;9084;50.956;3.106;2023-05-29T07:39:33;14.80;99.90
17918;DHT22;9084;50.956;3.106;2023-05-29T07:42:02;14.90;99.90
17918;DHT22;9084;50.956;3.106;2023-05-29T07:44:28;14.90;99.90
17918;DHT22;9084;50.956;3.106;2023-05-29T07:46:54;15.00;99.90
17918;DHT22;9084;50.956;3.106;2023-05-29T07:49:22;15.00;99.90
17918;DHT22;9084;50.956;3.106;2023-05-29T07:51:50;15.00;99.90
17918;DHT22;9084;50.956;3.106;2023-05-29T07:54:16;15.10;99.90
17918;DHT22;9084;50.956;3.106;2023-05-29T07:56:43;15.20;99.90
17918;DHT22;9084;50.956;3.106;2023-05-29T07:59:10;15.30;99.90
17918;DHT22;9084;50.956;3.106;2023-05-29T08:01:36;15.40;99.90
17918;DHT22;9084;50.956;3.106;2023-05-29T08:04:05;15.40;99.90
17918;DHT22;9084;50.956;3.106;2023-05-29T08:06:30;15.50;99.90
17918;DHT22;9084;50.956;3.106;2023-05-29T08:09:02;15.60;99.90
17918;DHT22;9084;50.956;3.106;2023-05-29T08:11:30;15.70;99.90
17918;DHT22;9084;50.956;3.106;2023-05-29T08:13:57;15.90;99.80
17918;DHT22;9084;50.956;3.106;2023-05-29T08:16:23;15.90;99.40
17918;DHT22;9084;50.956;3.106;2023-05-29T08:18:48;16.00;99.70
17918;DHT22;9084;50.956;3.106;2023-05-29T08:21:14;15.90;97.70
17918;DHT22;9084;50.956;3.106;2023-05-29T08:23:42;15.90;98.30
17918;DHT22;9084;50.956;3.106;2023-05-29T08:26:10;15.90;97.70
17918;DHT22;9084;50.956;3.106;2023-05-29T08:28:38;15.90;98.20
17918;DHT22;9084;50.956;3.106;2023-05-29T08:31:04;15.80;97.50
17918;DHT22;9084;50.956;3.106;2023-05-29T08:33:29;15.80;97.80
17918;DHT22;9084;50.956;3.106;2023-05-29T08:36:01;15.80;97.90
17918;DHT22;9084;50.956;3.106;2023-05-29T08:38:29;15.90;99.30
17918;DHT22;9084;50.956;3.106;2023-05-29T08:40:56;16.00;97.50
17918;DHT22;9084;50.956;3.106;2023-05-29T08:43:28;16.10;97.60
17918;DHT22;9084;50.956;3.106;2023-05-29T08:46:00;16.10;97.20
17918;DHT22;9084;50.956;3.106;2023-05-29T08:48:29;16.20;96.90
17918;DHT22;9084;50.956;3.106;2023-05-29T08:50:57;16.30;96.60
17918;DHT22;9084;50.956;3.106;2023-05-29T08:53:26;16.40;96.40
17918;DHT22;9084;50.956;3.106;2023-05-29T08:55:54;16.50;96.50
17918;DHT22;9084;50.956;3.106;2023-05-29T08:58:24;16.50;95.80
17918;DHT22;9084;50.956;3.106;2023-05-29T09:00:52;16.50;94.70
17918;DHT22;9084;50.956;3.106;2023-05-29T09:03:20;16.60;94.80
17918;DHT22;9084;50.956;3.106;2023-05-29T09:05:48;16.70;95.30
17918;DHT22;9084;50.956;3.106;2023-05-29T09:08:16;16.80;93.50
17918;DHT22;9084;50.956;3.106;2023-05-29T09:10:42;16.80;94.00
17918;DHT22;9084;50.956;3.106;2023-05-29T09:13:09;16.90;92.10
17918;DHT22;9084;50.956;3.106;2023-05-29T09:15:42;16.90;92.30
17918;DHT22;9084;50.956;3.106;2023-05-29T09:18:13;16.80;92.70
17918;DHT22;9084;50.956;3.106;2023-05-29T09:20:39;16.90;92.30
17918;DHT22;9084;50.956;3.106;2023-05-29T09:23:08;16.90;93.10
17918;DHT22;9084;50.956;3.106;2023-05-29T09:25:44;16.90;93.40
17918;DHT22;9084;50.956;3.106;2023-05-29T09:28:18;17.00;92.80
17918;DHT22;9084;50.956;3.106;2023-05-29T09:30:45;17.10;93.30
17918;DHT22;9084;50.956;3.106;2023-05-29T09:33:13;17.10;92.60
17918;DHT22;9084;50.956;3.106;2023-05-29T09:35:47;17.20;91.80
17918;DHT22;9084;50.956;3.106;2023-05-29T09:38:14;17.10;93.20
17918;DHT22;9084;50.956;3.106;2023-05-29T09:40:44;17.10;92.70
17918;DHT22;9084;50.956;3.106;2023-05-29T09:43:14;17.20;94.20
17918;DHT22;9084;50.956;3.106;2023-05-29T09:45:44;17.30;93.70
17918;DHT22;9084;50.956;3.106;2023-05-29T09:48:18;17.40;94.00
17918;DHT22;9084;50.956;3.106;2023-05-29T09:50:47;17.60;95.70
17918;DHT22;9084;50.956;3.106;2023-05-29T09:53:23;17.50;92.30
17918;DHT22;9084;50.956;3.106;2023-05-29T09:55:54;17.50;92.80
17918;DHT22;9084;50.956;3.106;2023-05-29T09:58:25;17.50;94.10
17918;DHT22;9084;50.956;3.106;2023-05-29T10:00:52;17.60;93.80
17918;DHT22;9084;50.956;3.106;2023-05-29T10:03:19;17.60;93.40
17918;DHT22;9084;50.956;3.106;2023-05-29T10:05:50;17.60;91.90
17918;DHT22;9084;50.956;3.106;2023-05-29T10:08:18;17.70;92.40
17918;DHT22;9084;50.956;3.106;2023-05-29T10:11:06;17.70;92.80
17918;DHT22;9084;50.956;3.106;2023-05-29T10:13:40;17.80;94.20
17918;DHT22;9084;50.956;3.106;2023-05-29T10:16:11;17.80;92.00
17918;DHT22;9084;50.956;3.106;2023-05-29T10:18:47;17.90;92.40
17918;DHT22;9084;50.956;3.106;2023-05-29T10:21:15;17.90;93.60
17918;DHT22;9084;50.956;3.106;2023-05-29T10:23:46;18.00;93.40
17918;DHT22;9084;50.956;3.106;2023-05-29T10:26:15;18.10;93.50
17918;DHT22;9084;50.956;3.106;2023-05-29T10:28:52;18.10;94.80
17918;DHT22;9084;50.956;3.106;2023-05-29T10:31:28;18.10;91.80
17918;DHT22;9084;50.956;3.106;2023-05-29T10:34:18;18.10;92.80
17918;DHT22;9084;50.956;3.106;2023-05-29T10:36:58;18.10;92.70
17918;DHT22;9084;50.956;3.106;2023-05-29T10:39:26;18.20;92.60
17918;DHT22;9084;50.956;3.106;2023-05-29T10:41:52;18.30;94.00
17918;DHT22;9084;50.956;3.106;2023-05-29T10:49:29;18.40;94.60
17918;DHT22;9084;50.956;3.106;2023-05-29T10:51:58;18.50;94.30
17918;DHT22;9084;50.956;3.106;2023-05-29T10:54:40;18.50;93.00
17918;DHT22;9084;50.956;3.106;2023-05-29T10:57:07;18.60;95.10
17918;DHT22;9084;50.956;3.106;2023-05-29T10:59:37;18.50;93.80
17918;DHT22;9084;50.956;3.106;2023-05-29T11:02:04;18.60;93.20
17918;DHT22;9084;50.956;3.106;2023-05-29T11:04:31;18.60;94.40
17918;DHT22;9084;50.956;3.106;2023-05-29T11:07:00;18.70;93.60
17918;DHT22;9084;50.956;3.106;2023-05-29T11:12:55;18.60;92.60
17918;DHT22;9084;50.956;3.106;2023-05-29T11:15:21;18.60;92.50
17918;DHT22;9084;50.956;3.106;2023-05-29T11:17:46;18.70;92.90
17918;DHT22;9084;50.956;3.106;2023-05-29T11:20:39;18.60;93.30
17918;DHT22;9084;50.956;3.106;2023-05-29T11:23:15;18.70;93.20
17918;DHT22;9084;50.956;3.106;2023-05-29T11:25:44;18.80;93.50
17918;DHT22;9084;50.956;3.106;2023-05-29T11:28:10;18.90;92.00
17918;DHT22;9084;50.956;3.106;2023-05-29T11:33:15;18.90;91.90
17918;DHT22;9084;50.956;3.106;2023-05-29T11:35:46;19.10;93.70
17918;DHT22;9084;50.956;3.106;2023-05-29T11:38:15;19.10;92.70
17918;DHT22;9084;50.956;3.106;2023-05-29T11:40:41;19.10;91.60
17918;DHT22;9084;50.956;3.106;2023-05-29T11:43:06;19.20;92.50
17918;DHT22;9084;50.956;3.106;2023-05-29T11:45:33;19.30;92.90
17918;DHT22;9084;50.956;3.106;2023-05-29T11:48:02;19.30;91.40
17918;DHT22;9084;50.956;3.106;2023-05-29T11:50:30;19.30;91.00
17918;DHT22;9084;50.956;3.106;2023-05-29T11:52:59;19.20;92.30
17918;DHT22;9084;50.956;3.106;2023-05-29T11:55:26;19.30;91.80
17918;DHT22;9084;50.956;3.106;2023-05-29T11:57:57;19.30;91.70
17918;DHT22;9084;50.956;3.106;2023-05-29T12:00:29;19.40;90.90
17918;DHT22;9084;50.956;3.106;2023-05-29T12:02:58;19.50;91.00
17918;DHT22;9084;50.956;3.106;2023-05-29T12:05:29;19.60;90.80
17918;DHT22;9084;50.956;3.106;2023-05-29T12:07:55;19.50;90.20
17918;DHT22;9084;50.956;3.106;2023-05-29T12:10:28;19.60;90.00
17918;DHT22;9084;50.956;3.106;2023-05-29T12:12:56;19.60;89.50
17918;DHT22;9084;50.956;3.106;2023-05-29T12:15:22;19.70;89.80
17918;DHT22;9084;50.956;3.106;2023-05-29T12:17:49;19.80;88.80
17918;DHT22;9084;50.956;3.106;2023-05-29T12:20:16;19.80;88.80
17918;DHT22;9084;50.956;3.106;2023-05-29T12:22:45;19.70;87.80
17918;DHT22;9084;50.956;3.106;2023-05-29T12:25:16;19.80;87.00
17918;DHT22;9084;50.956;3.106;2023-05-29T12:27:46;19.70;85.20
17918;DHT22;9084;50.956;3.106;2023-05-29T12:30:13;19.70;86.20
17918;DHT22;9084;50.956;3.106;2023-05-29T12:32:44;19.70;87.40
17918;DHT22;9084;50.956;3.106;2023-05-29T12:35:17;19.80;88.50
17918;DHT22;9084;50.956;3.106;2023-05-29T12:42:48;19.90;88.20
17918;DHT22;9084;50.956;3.106;2023-05-29T12:45:17;19.90;88.20
17918;DHT22;9084;50.956;3.106;2023-05-29T12:48:07;20.00;85.90
17918;DHT22;9084;50.956;3.106;2023-05-29T12:50:37;20.20;86.60
17918;DHT22;9084;50.956;3.106;2023-05-29T12:53:12;20.20;86.30
17918;DHT22;9084;50.956;3.106;2023-05-29T12:55:43;20.30;88.20
17918;DHT22;9084;50.956;3.106;2023-05-29T12:58:12;20.40;83.40
17918;DHT22;9084;50.956;3.106;2023-05-29T13:00:43;20.30;83.30
17918;DHT22;9084;50.956;3.106;2023-05-29T13:03:09;20.40;87.40
17918;DHT22;9084;50.956;3.106;2023-05-29T13:05:36;20.40;86.60
17918;DHT22;9084;50.956;3.106;2023-05-29T13:08:02;20.30;89.50
17918;DHT22;9084;50.956;3.106;2023-05-29T13:10:30;20.10;88.60
17918;DHT22;9084;50.956;3.106;2023-05-29T13:12:56;20.00;89.00
17918;DHT22;9084;50.956;3.106;2023-05-29T13:15:26;20.00;89.20
17918;DHT22;9084;50.956;3.106;2023-05-29T13:17:53;20.10;89.20
17918;DHT22;9084;50.956;3.106;2023-05-29T13:20:20;20.20;89.40
17918;DHT22;9084;50.956;3.106;2023-05-29T13:22:47;20.30;90.00
17918;DHT22;9084;50.956;3.106;2023-05-29T13:25:17;20.30;88.20
17918;DHT22;9084;50.956;3.106;2023-05-29T13:27:47;20.30;88.60
17918;DHT22;9084;50.956;3.106;2023-05-29T13:30:14;20.30;89.70
17918;DHT22;9084;50.956;3.106;2023-05-29T13:32:45;20.30;90.30
17918;DHT22;9084;50.956;3.106;2023-05-29T13:35:13;20.30;88.90
17918;DHT22;9084;50.956;3.106;2023-05-29T13:37:39;20.40;88.40
17918;DHT22;9084;50.956;3.106;2023-05-29T13:40:06;20.40;87.00
17918;DHT22;9084;50.956;3.106;2023-05-29T13:42:32;20.50;90.00
17918;DHT22;9084;50.956;3.106;2023-05-29T13:44:58;20.60;89.30
17918;DHT22;9084;50.956;3.106;2023-05-29T13:47:24;20.70;88.30
17918;DHT22;9084;50.956;3.106;2023-05-29T13:49:52;20.60;85.90
17918;DHT22;9084;50.956;3.106;2023-05-29T13:52:17;20.50;86.80
17918;DHT22;9084;50.956;3.106;2023-05-29T13:54:43;20.30;87.80
17918;DHT22;9084;50.956;3.106;2023-05-29T13:57:08;20.10;87.90
17918;DHT22;9084;50.956;3.106;2023-05-29T13:59:37;20.10;89.00
17918;DHT22;9084;50.956;3.106;2023-05-29T14:02:03;20.10;89.30
17918;DHT22;9084;50.956;3.106;2023-05-29T14:04:31;20.30;90.60
17918;DHT22;9084;50.956;3.106;2023-05-29T14:07:00;20.30;87.20
17918;DHT22;9084;50.956;3.106;2023-05-29T14:09:26;20.30;87.60
17918;DHT22;9084;50.956;3.106;2023-05-29T14:11:55;20.30;86.90
17918;DHT22;9084;50.956;3.106;2023-05-29T14:14:21;20.10;87.20
17918;DHT22;9084;50.956;3.106;2023-05-29T14:16:52;19.90;89.00
17918;DHT22;9084;50.956;3.106;2023-05-29T14:19:22;19.90;89.50
17918;DHT22;9084;50.956;3.106;2023-05-29T14:21:48;20.10;89.10
17918;DHT22;9084;50.956;3.106;2023-05-29T14:24:13;20.20;88.30
17918;DHT22;9084;50.956;3.106;2023-05-29T14:26:41;20.40;88.10
17918;DHT22;9084;50.956;3.106;2023-05-29T14:29:10;20.50;84.40
17918;DHT22;9084;50.956;3.106;2023-05-29T14:31:36;20.60;84.50
17918;DHT22;9084;50.956;3.106;2023-05-29T14:34:02;20.70;84.30
17918;DHT22;9084;50.956;3.106;2023-05-29T14:36:27;20.70;84.70
17918;DHT22;9084;50.956;3.106;2023-05-29T14:38:55;20.70;84.00
17918;DHT22;9084;50.956;3.106;2023-05-29T14:41:23;20.60;84.30
17918;DHT22;9084;50.956;3.106;2023-05-29T14:43:51;20.70;85.70
17918;DHT22;9084;50.956;3.106;2023-05-29T14:46:17;20.80;86.20
17918;DHT22;9084;50.956;3.106;2023-05-29T14:48:43;21.00;86.20
17918;DHT22;9084;50.956;3.106;2023-05-29T14:51:09;21.10;84.10
17918;DHT22;9084;50.956;3.106;2023-05-29T14:53:37;20.80;83.90
17918;DHT22;9084;50.956;3.106;2023-05-29T14:56:03;20.70;84.40
17918;DHT22;9084;50.956;3.106;2023-05-29T14:58:29;20.50;86.30
17918;DHT22;9084;50.956;3.106;2023-05-29T15:00:55;20.30;87.20
17918;DHT22;9084;50.956;3.106;2023-05-29T15:03:21;20.10;87.40
17918;DHT22;9084;50.956;3.106;2023-05-29T15:05:52;19.90;88.60
17918;DHT22;9084;50.956;3.106;2023-05-29T15:08:20;20.00;90.10
17918;DHT22;9084;50.956;3.106;2023-05-29T15:10:48;19.90;89.60
17918;DHT22;9084;50.956;3.106;2023-05-29T15:13:14;20.00;90.00
17918;DHT22;9084;50.956;3.106;2023-05-29T15:15:39;20.00;90.00
17918;DHT22;9084;50.956;3.106;2023-05-29T15:18:05;20.00;89.20
17918;DHT22;9084;50.956;3.106;2023-05-29T15:20:31;20.10;90.10
17918;DHT22;9084;50.956;3.106;2023-05-29T15:22:57;20.00;89.30
17918;DHT22;9084;50.956;3.106;2023-05-29T15:25:22;19.90;90.50
17918;DHT22;9084;50.956;3.106;2023-05-29T15:27:48;19.90;90.50
17918;DHT22;9084;50.956;3.106;2023-05-29T15:30:16;19.80;89.80
17918;DHT22;9084;50.956;3.106;2023-05-29T15:32:45;19.80;90.30
17918;DHT22;9084;50.956;3.106;2023-05-29T15:35:13;19.80;90.30
17918;DHT22;9084;50.956;3.106;2023-05-29T15:37:42;19.80;90.40
17918;DHT22;9084;50.956;3.106;2023-05-29T15:40:09;19.80;90.00
17918;DHT22;9084;50.956;3.106;2023-05-29T15:42:35;19.70;90.20
17918;DHT22;9084;50.956;3.106;2023-05-29T15:45:02;19.70;90.80
17918;DHT22;9084;50.956;3.106;2023-05-29T15:47:29;19.60;90.70
17918;DHT22;9084;50.956;3.106;2023-05-29T15:49:55;19.50;91.60
17918;DHT22;9084;50.956;3.106;2023-05-29T15:52:21;19.40;91.80
17918;DHT22;9084;50.956;3.106;2023-05-29T15:54:46;19.50;91.30
17918;DHT22;9084;50.956;3.106;2023-05-29T15:57:12;19.50;92.20
17918;DHT22;9084;50.956;3.106;2023-05-29T15:59:38;19.60;92.00
17918;DHT22;9084;50.956;3.106;2023-05-29T16:02:04;19.70;92.70
17918;DHT22;9084;50.956;3.106;2023-05-29T16:04:29;19.70;91.00
17918;DHT22;9084;50.956;3.106;2023-05-29T16:06:55;19.80;90.80
17918;DHT22;9084;50.956;3.106;2023-05-29T16:09:21;19.60;90.60
17918;DHT22;9084;50.956;3.106;2023-05-29T16:11:47;19.50;91.50
17918;DHT22;9084;50.956;3.106;2023-05-29T16:14:13;19.60;91.20
17918;DHT22;9084;50.956;3.106;2023-05-29T16:16:41;19.60;91.70
17918;DHT22;9084;50.956;3.106;2023-05-29T16:19:07;19.60;91.40